Pojoaque, New Mexico
Current Conditions -  °F | °C
As of 10:53 PM on Saturday 27 Dec 2014 (Local Time) from KSAF Reporting Station
Clear Clear  
Wind Chill: -15°   Ceiling: Unl
Heat Index: -7°   Visibility: 10mi
Dew Point: -13°   Wind: 15mph
Humidity: 62%   Direction: 350°N
Pressure: 30.2"   Gusts: NA
Location:  35.7017°N, 105.921°W
Report Text: KSAF 280553Z AUTO 35013KT 10SM CLR M07/M13 A3020 RMK AO2 SLP258 T10721133 11028 21089 50003
Loading
Personal Weather Stations






























Interactive Weather Map New forecast layout! Learn more

10-Day Weather Forecast

Advertisements
Track Severe Weather on mobile